Flight Track Log - Related Links

Times and Time Zones

All times are in EDT time to prevent confusion due to time zone crossing. See the N152SK flight status page for this flight to view local times or setup timezone preferences in your user account.

Time Position Orientation Groundspeed Altitude Reporting Facility
EDT Latitude Longitude Course Direction KTS MPH feet Rate Location/Type
Mon 06:01:00 PM 39.6367 -87.5417 305° West  Level FlightAware Approximate
Mon 06:02:00 PM 39.6545 -87.5746 305° West  Level FlightAware Approximate
Mon 06:03:00 PM 39.6722 -87.6075 305° West  Level FlightAware Approximate
Mon 06:04:00 PM 39.6903 -87.6402 307° West  Level Estimated
Mon 06:04:29 PM 39.7919 -87.7708 306° West 97 112 4,700  Level Chicago Center
Mon 06:05:00 PM 39.7086 -87.6725 306° West  Level FlightAware Approximate
Mon 06:05:28 PM 39.8094 -87.7956 313° West 97 112 4,700  Level Indianapolis Center
Mon 06:06:00 PM 39.7270 -87.7049 306° West  Level FlightAware Approximate
Mon 06:06:30 PM 39.8292 -87.8192 317° Northwest 96 110 4,600  Level Indianapolis Center
Mon 06:07:00 PM 39.7454 -87.7372 306° West  Level FlightAware Approximate
Mon 06:07:32 PM 39.8483 -87.8472 312° West 99 114 4,600  Level Indianapolis Center
Mon 06:08:00 PM 39.7638 -87.7696 306° West  Level FlightAware Approximate
Mon 06:08:34 PM 39.8672 -87.8806 306° West 99 114 4,600  Level Indianapolis Center
Mon 06:09:00 PM 39.7821 -87.8020 306° West  Level FlightAware Approximate
Mon 06:10:00 PM 39.8862 -87.9306 296° West  Level FlightAware Approximate
Mon 06:17:00 PM 39.9868 -88.1858 299° West  Level FlightAware Approximate
Mon 06:18:00 PM 40.0025 -88.2205 311° West  Level FlightAware Approximate
Mon 06:19:00 PM 40.0229 -88.2509 311° West  Level FlightAware Approximate
Mon 06:20:00 PM 40.0333 -88.2667 311° West  Level FlightAware Approximate
Mon 06:21:00 PM 40.0388 -88.2778 311° West  Level Estimated
Mon 06:22:00 PM 40.0388 -88.2778 311° West  Level Estimated
Mon 06:23:00 PM 40.0388 -88.2778 311° West  Level Estimated
Mon 06:24:00 PM 40.0388 -88.2778 311° West  Level Estimated
Mon 06:25:00 PM 40.0388 -88.2778 311° West  Level Estimated

Login

Don't have an account? Register now (free) for customized features, flight alerts, and more!